Time;durP1;ratioP1;P1;durP2;ratioP2;P2;SDS_P1;SDS_P2;PMS_P1;PMS_P2;Temp;Humidity;BMP_temperature;BMP_pressure;BME280_temperature;BME280_humidity;BME280_pressure;Samples;Min_cycle;Max_cycle;Signal;HPM_P1;HPM_P2
2021/05/24 00:00:17;;;;;;;2.23;1.90;;;14.00;56.20;;;;;;5012339;28;20190;-46
2021/05/24 00:02:43;;;;;;;2.90;2.10;;;14.20;55.90;;;;;;5011694;28;20216;-46
2021/05/24 00:05:12;;;;;;;4.20;2.43;;;14.10;55.70;;;;;;5011902;28;20968;-46
2021/05/24 00:07:38;;;;;;;2.47;1.80;;;14.20;55.80;;;;;;5011915;28;20512;-45
2021/05/24 00:10:06;;;;;;;2.10;1.90;;;14.30;55.70;;;;;;5010725;28;20590;-48
2021/05/24 00:12:31;;;;;;;3.87;2.70;;;14.30;55.40;;;;;;5011175;28;20190;-46
2021/05/24 00:14:59;;;;;;;3.90;2.47;;;14.20;55.40;;;;;;5011713;28;20436;-45
2021/05/24 00:17:25;;;;;;;1.97;1.83;;;14.20;55.60;;;;;;5011609;28;20712;-46
2021/05/24 00:19:50;;;;;;;4.00;2.00;;;14.00;55.70;;;;;;5010978;28;20599;-46
2021/05/24 00:22:16;;;;;;;2.43;2.23;;;14.00;56.10;;;;;;5012026;28;20201;-45
2021/05/24 00:24:42;;;;;;;6.70;2.43;;;14.00;56.00;;;;;;5011020;28;20311;-45
2021/05/24 00:27:08;;;;;;;2.00;1.90;;;13.70;56.50;;;;;;5011572;28;20217;-45
2021/05/24 00:29:34;;;;;;;4.43;2.10;;;13.50;57.20;;;;;;5011284;28;20202;-45
2021/05/24 00:32:00;;;;;;;3.63;2.30;;;13.30;57.60;;;;;;5011995;28;20288;-46
2021/05/24 00:34:26;;;;;;;3.80;1.90;;;13.10;58.10;;;;;;5011571;28;20436;-46
2021/05/24 00:36:52;;;;;;;3.53;2.73;;;13.10;58.30;;;;;;5009757;28;20429;-45
2021/05/24 00:39:18;;;;;;;2.83;1.90;;;13.10;58.00;;;;;;5007642;28;20740;-46
2021/05/24 00:41:44;;;;;;;3.90;2.23;;;13.10;58.10;;;;;;4998355;28;20425;-45
2021/05/24 00:44:10;;;;;;;2.60;2.37;;;13.10;58.00;;;;;;4991845;28;20226;-45
2021/05/24 00:46:37;;;;;;;2.53;2.27;;;13.10;58.00;;;;;;4991806;28;20830;-46
2021/05/24 00:49:04;;;;;;;4.80;1.90;;;13.10;58.00;;;;;;4991507;28;20198;-45
2021/05/24 00:51:31;;;;;;;3.63;3.10;;;13.20;57.90;;;;;;4992011;28;20425;-49
2021/05/24 00:53:56;;;;;;;3.30;1.93;;;13.10;57.60;;;;;;4991636;28;20786;-46
2021/05/24 00:56:23;;;;;;;2.30;2.10;;;13.00;58.00;;;;;;4992106;28;20433;-46
2021/05/24 00:58:49;;;;;;;2.37;1.80;;;13.20;57.70;;;;;;4990956;28;20702;-46
2021/05/24 01:01:15;;;;;;;2.37;2.17;;;13.10;57.40;;;;;;4991991;28;20505;-45
2021/05/24 01:03:41;;;;;;;2.30;1.87;;;13.20;57.50;;;;;;4989711;28;20235;-45
2021/05/24 01:06:07;;;;;;;2.90;1.93;;;13.00;57.50;;;;;;4991977;28;20569;-46
2021/05/24 01:08:32;;;;;;;2.97;2.13;;;12.90;57.90;;;;;;4990984;28;20190;-47
2021/05/24 01:10:58;;;;;;;4.40;2.20;;;12.90;58.20;;;;;;4991701;28;20441;-46
2021/05/24 01:13:24;;;;;;;2.77;1.90;;;13.00;57.90;;;;;;4991380;28;20186;-45
2021/05/24 01:15:50;;;;;;;3.47;2.07;;;13.10;57.70;;;;;;4991944;28;20438;-46
2021/05/24 01:18:15;;;;;;;3.20;1.90;;;13.10;57.40;;;;;;4997545;28;20306;-47
2021/05/24 01:20:41;;;;;;;2.50;2.30;;;13.10;57.70;;;;;;5011466;28;20248;-45
2021/05/24 01:23:10;;;;;;;2.63;2.43;;;13.10;57.60;;;;;;5010814;28;20229;-45
2021/05/24 01:25:41;;;;;;;3.70;2.23;;;13.20;57.40;;;;;;5011389;28;20440;-47
2021/05/24 01:28:08;;;;;;;5.63;3.50;;;13.40;57.10;;;;;;5010295;28;20439;-46
2021/05/24 01:30:35;;;;;;;5.57;1.83;;;13.60;56.80;;;;;;5010764;28;20433;-46
2021/05/24 01:33:01;;;;;;;2.90;1.70;;;13.50;56.50;;;;;;5014266;28;20424;-48
2021/05/24 01:35:26;;;;;;;2.20;2.00;;;13.40;56.60;;;;;;5015128;28;20811;-46
2021/05/24 01:37:52;;;;;;;5.93;3.00;;;13.30;56.70;;;;;;5013504;28;20246;-46
2021/05/24 01:40:20;;;;;;;2.40;2.17;;;13.30;57.20;;;;;;5013305;28;20768;-47
2021/05/24 01:42:46;;;;;;;3.63;1.93;;;13.30;57.00;;;;;;4994761;28;20202;-46
2021/05/24 01:45:12;;;;;;;2.17;1.97;;;13.30;57.00;;;;;;4993945;28;20460;-46
2021/05/24 01:47:38;;;;;;;3.20;2.07;;;13.40;56.80;;;;;;4994595;28;20554;-48
2021/05/24 01:50:05;;;;;;;3.50;1.60;;;13.30;56.60;;;;;;4994552;28;20418;-45
2021/05/24 01:52:31;;;;;;;2.33;1.90;;;13.10;57.00;;;;;;4995002;28;20199;-50
2021/05/24 01:54:56;;;;;;;1.80;1.70;;;12.90;57.70;;;;;;4994400;28;20434;-49
2021/05/24 01:57:22;;;;;;;2.27;2.07;;;12.80;58.10;;;;;;4993018;28;20191;-46
2021/05/24 01:59:48;;;;;;;2.60;2.30;;;12.80;58.30;;;;;;4994323;28;20206;-46
2021/05/24 02:02:15;;;;;;;3.20;2.00;;;12.90;58.00;;;;;;4994919;28;20194;-46
2021/05/24 02:04:41;;;;;;;2.27;2.07;;;12.80;58.00;;;;;;4993916;28;20242;-46
2021/05/24 02:07:07;;;;;;;5.07;2.07;;;12.90;57.80;;;;;;4994343;28;20468;-46
2021/05/24 02:09:32;;;;;;;3.30;2.67;;;12.70;58.30;;;;;;4994348;28;20219;-48
2021/05/24 02:11:58;;;;;;;3.60;2.40;;;12.60;58.70;;;;;;4994800;28;20194;-46
2021/05/24 02:14:24;;;;;;;3.10;2.10;;;12.70;58.50;;;;;;4993830;28;20249;-45
2021/05/24 02:16:50;;;;;;;3.73;2.20;;;12.80;58.00;;;;;;4994383;28;20322;-45
2021/05/24 02:19:17;;;;;;;2.47;2.27;;;12.80;58.10;;;;;;5009211;28;20425;-50
2021/05/24 02:21:43;;;;;;;2.97;2.00;;;12.80;58.20;;;;;;5014116;28;20853;-46
2021/05/24 02:24:10;;;;;;;5.50;2.40;;;12.90;58.50;;;;;;5011706;28;20512;-46
2021/05/24 02:26:37;;;;;;;3.80;2.23;;;12.70;58.00;;;;;;5013709;28;20198;-46
2021/05/24 02:29:04;;;;;;;4.73;3.60;;;12.80;58.00;;;;;;5013360;28;20413;-46
2021/05/24 02:31:30;;;;;;;3.93;2.33;;;12.70;58.10;;;;;;5013863;28;21024;-46
2021/05/24 02:33:56;;;;;;;3.60;2.27;;;12.80;58.20;;;;;;5013402;28;20504;-45
2021/05/24 02:36:24;;;;;;;3.20;2.30;;;12.80;57.90;;;;;;5013733;28;20194;-49
2021/05/24 02:38:50;;;;;;;3.03;2.40;;;12.90;57.80;;;;;;5009771;28;20230;-45
2021/05/24 02:41:16;;;;;;;2.83;2.37;;;13.00;57.30;;;;;;5013397;28;20436;-46
2021/05/24 02:43:42;;;;;;;2.43;2.10;;;13.10;57.00;;;;;;5012966;28;20477;-48
2021/05/24 02:46:08;;;;;;;3.40;2.33;;;13.20;56.90;;;;;;5013559;28;20433;-50
2021/05/24 02:48:34;;;;;;;4.63;2.37;;;13.10;56.60;;;;;;5012555;28;20194;-45
2021/05/24 02:51:00;;;;;;;5.40;2.23;;;12.90;57.00;;;;;;5011809;28;20924;-50
2021/05/24 02:53:25;;;;;;;3.07;2.20;;;12.90;57.40;;;;;;5012838;28;20564;-51
2021/05/24 02:55:51;;;;;;;2.60;1.90;;;12.90;57.40;;;;;;5013404;28;20240;-45
2021/05/24 02:58:17;;;;;;;2.30;2.10;;;13.00;57.40;;;;;;5012547;28;20545;-45
2021/05/24 03:00:42;;;;;;;3.40;2.10;;;13.00;57.20;;;;;;5013447;28;20604;-46
2021/05/24 03:03:10;;;;;;;6.13;2.63;;;12.70;57.40;;;;;;5012708;28;20584;-47
2021/05/24 03:05:35;;;;;;;2.40;2.20;;;12.80;58.00;;;;;;5013148;28;20225;-45
2021/05/24 03:08:01;;;;;;;6.80;2.27;;;12.80;57.60;;;;;;5012188;28;21143;-47
2021/05/24 03:10:27;;;;;;;2.57;2.37;;;13.00;57.40;;;;;;5013261;28;20198;-47
2021/05/24 03:12:55;;;;;;;3.03;2.63;;;13.10;57.10;;;;;;5012391;28;20248;-45
2021/05/24 03:15:21;;;;;;;2.43;2.23;;;13.20;57.00;;;;;;5012036;28;20194;-47
2021/05/24 03:17:47;;;;;;;2.57;2.30;;;13.20;56.70;;;;;;5011276;28;20439;-45
2021/05/24 03:20:14;;;;;;;6.30;2.30;;;13.20;56.70;;;;;;5013182;28;20528;-46
2021/05/24 03:22:41;;;;;;;2.33;2.13;;;13.20;56.60;;;;;;5012895;28;20189;-46
2021/05/24 03:25:09;;;;;;;5.03;2.50;;;13.30;56.50;;;;;;5012250;28;20968;-45
2021/05/24 03:27:35;;;;;;;2.13;1.93;;;13.40;56.50;;;;;;5012255;28;20451;-45
2021/05/24 03:30:00;;;;;;;2.37;2.20;;;13.40;56.40;;;;;;5012299;28;20424;-46
2021/05/24 03:32:26;;;;;;;2.70;2.10;;;13.40;56.20;;;;;;5012875;28;20190;-45
2021/05/24 03:34:52;;;;;;;2.83;2.10;;;13.40;56.20;;;;;;5012115;28;20273;-45
2021/05/24 03:37:17;;;;;;;1.97;1.77;;;13.50;56.20;;;;;;5011918;28;20328;-47
2021/05/24 03:39:43;;;;;;;2.50;1.73;;;13.50;56.10;;;;;;5008769;28;20556;-45
2021/05/24 03:42:09;;;;;;;2.23;1.90;;;13.40;56.00;;;;;;5010537;28;20198;-46
2021/05/24 03:44:36;;;;;;;3.70;2.40;;;13.20;56.30;;;;;;5010891;28;20309;-46
2021/05/24 03:47:03;;;;;;;6.80;2.63;;;13.20;56.50;;;;;;5011950;28;20194;-45
2021/05/24 03:49:29;;;;;;;6.40;2.70;;;13.30;56.60;;;;;;5012055;28;20921;-47
2021/05/24 03:51:54;;;;;;;3.17;1.90;;;13.30;56.40;;;;;;5012512;28;20467;-45
2021/05/24 03:54:20;;;;;;;3.17;2.87;;;13.20;56.40;;;;;;5010986;28;20212;-46
2021/05/24 03:56:47;;;;;;;6.23;2.27;;;13.20;56.40;;;;;;5011915;28;20197;-45
2021/05/24 03:59:13;;;;;;;2.90;2.40;;;13.30;56.40;;;;;;5011789;28;20200;-46
2021/05/24 04:01:40;;;;;;;2.67;2.47;;;13.20;56.40;;;;;;5012211;28;20991;-45
2021/05/24 04:04:06;;;;;;;2.33;2.13;;;13.30;56.40;;;;;;5011529;28;20492;-49
2021/05/24 04:06:32;;;;;;;3.67;2.00;;;13.30;56.40;;;;;;5012017;28;20429;-46
2021/05/24 04:08:58;;;;;;;3.30;2.20;;;13.20;56.30;;;;;;5010142;28;20428;-46
2021/05/24 04:11:24;;;;;;;3.00;2.20;;;13.00;57.10;;;;;;5012172;28;20920;-47
2021/05/24 04:13:53;;;;;;;5.57;2.40;;;13.00;57.20;;;;;;5011313;28;20503;-47
2021/05/24 04:16:19;;;;;;;2.60;2.40;;;12.70;57.70;;;;;;5011697;28;20198;-50
2021/05/24 04:18:48;;;;;;;7.27;2.57;;;12.60;58.30;;;;;;5011358;28;20790;-51
2021/05/24 04:21:14;;;;;;;3.93;2.27;;;12.80;58.20;;;;;;5011769;28;20194;-49
2021/05/24 04:23:40;;;;;;;2.93;2.37;;;12.90;57.80;;;;;;5011373;28;20840;-46
2021/05/24 04:26:06;;;;;;;3.07;2.77;;;12.90;57.40;;;;;;5012006;28;20428;-48
2021/05/24 04:28:32;;;;;;;4.27;2.07;;;13.00;57.40;;;;;;5011026;28;20429;-50
2021/05/24 04:30:57;;;;;;;2.60;2.40;;;13.10;57.30;;;;;;5011947;28;20669;-48
2021/05/24 04:33:23;;;;;;;2.17;1.70;;;13.10;57.00;;;;;;5011190;28;20205;-45
2021/05/24 04:35:48;;;;;;;2.10;1.90;;;13.00;57.00;;;;;;5010276;28;20301;-46
2021/05/24 04:38:14;;;;;;;2.80;2.20;;;13.00;57.10;;;;;;5009611;28;20230;-49
2021/05/24 04:40:40;;;;;;;3.70;2.30;;;12.80;57.60;;;;;;5009500;28;20251;-51
2021/05/24 04:43:06;;;;;;;5.10;2.10;;;12.80;57.90;;;;;;5011185;28;20193;-49
2021/05/24 04:45:31;;;;;;;2.57;2.37;;;12.90;57.60;;;;;;5011779;28;20220;-48
2021/05/24 04:47:57;;;;;;;5.17;3.40;;;13.00;57.50;;;;;;5011093;28;20194;-51
2021/05/24 04:50:23;;;;;;;4.70;2.40;;;13.10;57.30;;;;;;5011840;28;20197;-50
2021/05/24 04:52:48;;;;;;;5.80;2.50;;;13.10;57.00;;;;;;5010982;28;20243;-47
2021/05/24 04:55:14;;;;;;;2.60;2.40;;;13.20;56.80;;;;;;5011818;28;20208;-51
2021/05/24 04:57:40;;;;;;;2.17;1.70;;;13.20;56.50;;;;;;5011327;28;20598;-49
2021/05/24 05:00:09;;;;;;;2.50;2.27;;;13.30;56.80;;;;;;5006903;28;20557;-48
2021/05/24 05:02:35;;;;;;;2.70;2.37;;;13.30;56.70;;;;;;4990149;28;20221;-48
2021/05/24 05:05:01;;;;;;;1.90;1.80;;;13.40;56.70;;;;;;4993230;28;20528;-46
2021/05/24 05:07:27;;;;;;;2.73;2.27;;;13.40;56.60;;;;;;4995737;28;20508;-48
2021/05/24 05:09:54;;;;;;;2.47;2.00;;;13.50;56.60;;;;;;4995280;28;20226;-50
2021/05/24 05:12:20;;;;;;;3.03;2.37;;;13.60;56.50;;;;;;4995823;28;20850;-46
2021/05/24 05:14:45;;;;;;;3.23;2.10;;;13.60;56.20;;;;;;4995166;28;20425;-49
2021/05/24 05:17:11;;;;;;;3.50;2.20;;;13.60;56.40;;;;;;4995473;28;20414;-48
2021/05/24 05:19:36;;;;;;;5.83;1.70;;;13.60;56.30;;;;;;5013097;28;20265;-47
2021/05/24 05:22:02;;;;;;;2.03;1.57;;;13.70;56.20;;;;;;5015478;28;20222;-48
2021/05/24 05:24:28;;;;;;;2.80;1.73;;;13.80;56.10;;;;;;5014454;28;20233;-49
2021/05/24 05:26:53;;;;;;;2.30;2.00;;;13.70;56.20;;;;;;5014914;28;20566;-50
2021/05/24 05:29:19;;;;;;;5.20;2.00;;;13.60;56.20;;;;;;5012817;28;20194;-47
2021/05/24 05:31:44;;;;;;;6.00;2.10;;;13.60;56.40;;;;;;5015274;28;20190;-49
2021/05/24 05:34:10;;;;;;;2.20;2.10;;;13.60;56.60;;;;;;5014097;28;20201;-49
2021/05/24 05:36:37;;;;;;;2.47;2.20;;;13.40;57.10;;;;;;5014700;28;20235;-51
2021/05/24 05:39:06;;;;;;;2.90;2.10;;;13.30;57.60;;;;;;5010918;28;20233;-49
2021/05/24 05:41:33;;;;;;;1.80;1.70;;;13.40;57.90;;;;;;5014746;28;20921;-48
2021/05/24 05:43:59;;;;;;;2.03;1.83;;;13.40;57.40;;;;;;5013901;28;20654;-47
2021/05/24 05:46:24;;;;;;;2.23;2.03;;;13.30;57.70;;;;;;5014424;28;20515;-50
2021/05/24 05:48:50;;;;;;;3.00;2.00;;;13.30;58.00;;;;;;5014204;28;20198;-48
2021/05/24 05:51:15;;;;;;;3.40;2.13;;;13.50;58.00;;;;;;5014639;28;20194;-49
2021/05/24 05:53:41;;;;;;;2.20;2.00;;;13.70;57.60;;;;;;5013693;28;20198;-50
2021/05/24 05:56:07;;;;;;;2.17;1.97;;;13.90;57.20;;;;;;5012641;28;20194;-50
2021/05/24 05:58:32;;;;;;;3.20;2.30;;;14.00;57.00;;;;;;5013910;28;20564;-45
2021/05/24 06:01:02;;;;;;;2.70;2.20;;;13.90;57.20;;;;;;5014566;28;20198;-45
2021/05/24 06:03:28;;;;;;;3.00;2.70;;;14.00;57.50;;;;;;5013703;28;20232;-45
2021/05/24 06:05:54;;;;;;;5.20;2.73;;;14.10;57.40;;;;;;5014461;28;20429;-45
2021/05/24 06:08:19;;;;;;;2.30;2.10;;;14.20;57.20;;;;;;5013304;28;20190;-45
2021/05/24 06:10:45;;;;;;;2.47;2.27;;;14.20;57.10;;;;;;5014242;28;20226;-45
2021/05/24 06:13:10;;;;;;;3.73;1.87;;;14.30;56.80;;;;;;5013721;28;20190;-46
2021/05/24 06:15:36;;;;;;;4.40;2.43;;;14.30;56.60;;;;;;5014005;28;20225;-47
2021/05/24 06:18:02;;;;;;;2.87;2.57;;;14.40;56.40;;;;;;5012856;28;20221;-46
2021/05/24 06:20:28;;;;;;;2.93;2.33;;;14.30;56.30;;;;;;5013601;28;20198;-50
2021/05/24 06:22:53;;;;;;;3.20;2.10;;;14.40;56.50;;;;;;5012336;28;20761;-47
2021/05/24 06:25:19;;;;;;;2.00;1.87;;;14.50;56.30;;;;;;5014115;28;20210;-46
2021/05/24 06:27:44;;;;;;;2.90;2.63;;;14.50;56.40;;;;;;5013132;28;20206;-46
2021/05/24 06:30:11;;;;;;;4.20;3.10;;;14.50;56.40;;;;;;5013957;28;20654;-46
2021/05/24 06:32:37;;;;;;;3.13;2.83;;;14.60;56.30;;;;;;5013609;28;20192;-45
2021/05/24 06:35:04;;;;;;;3.83;2.67;;;14.70;55.90;;;;;;5013296;28;20436;-45
2021/05/24 06:37:30;;;;;;;3.70;2.07;;;14.70;56.30;;;;;;5013188;28;20433;-48
2021/05/24 06:39:55;;;;;;;2.30;1.90;;;14.80;56.30;;;;;;5010399;28;20504;-45
2021/05/24 06:42:21;;;;;;;3.83;2.40;;;14.90;56.20;;;;;;5013452;28;20221;-46
2021/05/24 06:44:47;;;;;;;3.10;2.30;;;15.10;56.00;;;;;;5013107;28;20320;-46
2021/05/24 06:47:12;;;;;;;2.37;2.10;;;15.10;55.50;;;;;;5011711;28;20725;-46
2021/05/24 06:49:38;;;;;;;1.93;1.73;;;15.20;55.40;;;;;;5013212;28;20284;-45
2021/05/24 06:52:04;;;;;;;7.73;1.87;;;15.40;54.90;;;;;;5013337;28;20275;-45
2021/05/24 06:54:31;;;;;;;1.77;1.63;;;15.50;54.60;;;;;;5013312;28;20308;-45
2021/05/24 06:56:57;;;;;;;2.70;1.63;;;15.70;54.30;;;;;;5013199;28;20428;-46
2021/05/24 06:59:23;;;;;;;1.60;1.50;;;15.80;54.50;;;;;;5012866;28;20436;-45
2021/05/24 07:01:49;;;;;;;1.60;1.50;;;15.90;53.80;;;;;;5013163;28;20433;-45
2021/05/24 07:04:14;;;;;;;3.63;1.97;;;16.00;54.30;;;;;;5012504;28;20222;-46
2021/05/24 07:06:40;;;;;;;3.97;1.63;;;16.10;53.90;;;;;;5012979;28;20239;-46
2021/05/24 07:09:06;;;;;;;1.87;1.50;;;16.10;54.20;;;;;;5012569;28;20253;-46
2021/05/24 07:11:31;;;;;;;3.33;2.13;;;16.20;54.30;;;;;;5012900;28;20335;-45
2021/05/24 07:13:57;;;;;;;2.20;1.73;;;16.30;54.70;;;;;;5010930;28;20194;-46
2021/05/24 07:16:22;;;;;;;2.23;1.67;;;16.40;54.60;;;;;;5012711;28;20201;-51
2021/05/24 07:18:48;;;;;;;2.50;1.80;;;16.50;54.10;;;;;;5012276;28;20582;-49
2021/05/24 07:21:14;;;;;;;2.23;2.03;;;16.60;53.90;;;;;;5012574;28;20189;-45
2021/05/24 07:23:39;;;;;;;3.20;1.70;;;16.80;54.10;;;;;;5012358;28;20708;-45
2021/05/24 07:26:05;;;;;;;2.00;1.40;;;16.90;53.90;;;;;;5012614;28;20194;-47
2021/05/24 07:28:30;;;;;;;2.97;2.67;;;17.10;54.00;;;;;;5012228;28;20560;-47
2021/05/24 07:30:56;;;;;;;2.37;1.90;;;17.20;54.60;;;;;;5012814;28;20190;-46
2021/05/24 07:33:22;;;;;;;2.47;2.07;;;17.30;53.70;;;;;;5012271;28;20190;-46
2021/05/24 07:35:47;;;;;;;3.90;1.90;;;17.40;53.00;;;;;;5012651;28;20190;-46
2021/05/24 07:38:13;;;;;;;2.37;2.17;;;17.50;52.20;;;;;;5010735;28;20590;-45
2021/05/24 07:40:38;;;;;;;1.90;1.80;;;17.50;51.80;;;;;;5008605;28;20196;-45
2021/05/24 07:43:05;;;;;;;1.77;1.50;;;17.60;51.30;;;;;;5011772;28;20201;-50
2021/05/24 07:45:32;;;;;;;1.40;1.30;;;17.70;51.30;;;;;;5012538;28;20599;-50
2021/05/24 07:47:57;;;;;;;2.30;1.77;;;17.30;51.60;;;;;;5011680;28;20421;-45
2021/05/24 07:50:24;;;;;;;2.93;1.70;;;17.40;52.00;;;;;;5012201;28;21012;-46
2021/05/24 07:52:50;;;;;;;2.37;1.50;;;17.60;52.10;;;;;;5012290;28;20205;-46
2021/05/24 07:55:16;;;;;;;1.70;1.60;;;17.80;52.10;;;;;;5012383;28;20935;-46
2021/05/24 07:57:42;;;;;;;1.93;1.80;;;17.80;51.70;;;;;;5012180;28;20622;-46
2021/05/24 08:00:10;;;;;;;1.43;1.33;;;17.90;51.00;;;;;;5011821;28;20208;-47
2021/05/24 08:02:41;;;;;;;1.30;1.20;;;17.70;49.30;;;;;;5012188;28;20437;-45
2021/05/24 08:05:08;;;;;;;3.13;1.43;;;17.70;49.70;;;;;;5011749;28;20571;-46
2021/05/24 08:07:35;;;;;;;1.43;1.23;;;17.80;50.20;;;;;;5010282;28;20791;-46
2021/05/24 08:10:00;;;;;;;1.83;1.20;;;17.90;50.10;;;;;;5011470;28;20986;-46
2021/05/24 08:12:26;;;;;;;1.50;1.40;;;17.90;50.20;;;;;;5012447;28;20421;-46
2021/05/24 08:14:52;;;;;;;2.03;1.50;;;17.90;50.60;;;;;;5011517;28;20304;-48
2021/05/24 08:17:18;;;;;;;2.20;1.50;;;17.90;50.90;;;;;;5011673;28;20200;-45
2021/05/24 08:19:44;;;;;;;2.90;1.50;;;17.70;51.30;;;;;;5011224;28;20524;-45
2021/05/24 08:22:10;;;;;;;1.30;1.20;;;17.70;52.00;;;;;;5012194;28;20204;-46
2021/05/24 08:24:36;;;;;;;5.67;2.10;;;18.00;52.00;;;;;;5011074;28;20485;-46
2021/05/24 08:27:01;;;;;;;3.37;1.50;;;18.00;51.40;;;;;;5011762;28;20190;-46
2021/05/24 08:29:27;;;;;;;1.20;1.10;;;18.10;51.60;;;;;;5011665;28;20213;-46
2021/05/24 08:31:52;;;;;;;2.10;1.40;;;18.30;51.30;;;;;;5011734;28;20201;-46
2021/05/24 08:34:18;;;;;;;1.73;1.60;;;17.80;51.50;;;;;;5009825;28;20658;-46
2021/05/24 08:36:45;;;;;;;1.40;1.30;;;17.70;51.70;;;;;;5009708;28;20235;-46
2021/05/24 08:39:11;;;;;;;1.80;1.27;;;17.80;51.20;;;;;;5011414;28;20234;-47
2021/05/24 08:41:38;;;;;;;1.43;1.33;;;17.90;51.80;;;;;;5017531;28;20440;-48
2021/05/24 08:44:05;;;;;;;1.57;1.47;;;18.00;50.90;;;;;;4999010;28;20513;-46
2021/05/24 08:46:31;;;;;;;1.57;1.47;;;18.20;50.30;;;;;;5017349;28;20464;-46
2021/05/24 08:48:57;;;;;;;2.10;1.43;;;18.40;50.10;;;;;;5014753;28;20474;-47
2021/05/24 08:51:23;;;;;;;2.13;1.37;;;18.50;49.60;;;;;;5018216;28;20193;-48
2021/05/24 08:53:48;;;;;;;2.70;1.53;;;18.50;49.40;;;;;;4997200;28;20217;-45
2021/05/24 08:56:15;;;;;;;1.43;1.33;;;18.80;49.50;;;;;;5014317;28;20642;-48
2021/05/24 08:58:41;;;;;;;1.40;1.30;;;18.90;49.20;;;;;;5016543;28;20205;-45
2021/05/24 09:01:06;;;;;;;1.30;1.20;;;19.20;49.50;;;;;;5015985;28;20448;-45
2021/05/24 09:03:35;;;;;;;1.50;1.40;;;19.50;48.90;;;;;;5013320;28;20209;-46
2021/05/24 09:06:07;;;;;;;2.30;1.43;;;19.70;47.80;;;;;;5010627;28;20201;-45
2021/05/24 09:08:41;;;;;;;1.43;1.20;;;20.00;47.30;;;;;;5007026;28;20443;-46
2021/05/24 09:11:31;;;;;;;1.60;1.30;;;20.30;47.00;;;;;;5017242;28;20476;-45
2021/05/24 09:13:57;;;;;;;2.63;1.97;;;20.60;45.50;;;;;;5014407;28;20522;-44
2021/05/24 09:16:36;;;;;;;1.70;1.60;;;20.80;46.20;;;;;;5011789;28;20441;-45
2021/05/24 09:19:19;;;;;;;2.60;1.27;;;20.90;45.20;;;;;;5014235;28;20200;-46
2021/05/24 09:22:07;;;;;;;1.30;1.20;;;21.10;44.50;;;;;;4998590;28;20452;-45
2021/05/24 09:24:40;;;;;;;1.50;1.40;;;21.10;44.20;;;;;;5008730;28;20496;-45
2021/05/24 09:27:35;;;;;;;4.93;1.60;;;21.30;43.10;;;;;;4998318;28;21040;-46
2021/05/24 09:30:01;;;;;;;2.40;1.43;;;21.50;44.00;;;;;;5014337;28;20432;-46
2021/05/24 09:32:29;;;;;;;1.17;1.07;;;21.60;41.10;;;;;;5013607;28;20972;-46
2021/05/24 09:35:02;;;;;;;1.40;1.30;;;21.60;40.10;;;;;;5013847;28;20190;-45
2021/05/24 09:37:33;;;;;;;1.20;1.10;;;21.70;40.40;;;;;;5003168;28;21056;-47
2021/05/24 09:39:58;;;;;;;1.37;1.27;;;21.60;41.00;;;;;;5005843;28;20490;-44
2021/05/24 09:42:25;;;;;;;1.57;1.00;;;21.70;40.90;;;;;;5011205;28;20532;-44
2021/05/24 09:44:54;;;;;;;1.20;1.10;;;21.90;40.30;;;;;;5015302;28;20240;-45
2021/05/24 09:47:39;;;;;;;1.20;1.00;;;22.10;40.80;;;;;;5013468;28;20444;-47
2021/05/24 09:50:14;;;;;;;1.63;1.23;;;22.30;40.40;;;;;;5010640;28;20559;-44
2021/05/24 09:52:41;;;;;;;1.27;1.10;;;22.40;41.80;;;;;;5012004;28;20440;-44
2021/05/24 09:55:14;;;;;;;1.00;1.00;;;22.30;41.30;;;;;;5009087;28;21047;-45
2021/05/24 09:57:59;;;;;;;3.13;1.20;;;22.50;41.00;;;;;;5010422;28;20784;-45
2021/05/24 10:00:48;;;;;;;1.70;1.30;;;22.60;39.80;;;;;;5014111;28;20440;-46
2021/05/24 10:03:15;;;;;;;2.13;1.20;;;22.30;40.80;;;;;;5009988;28;21025;-44
2021/05/24 10:05:47;;;;;;;1.70;1.13;;;22.40;40.90;;;;;;5010794;28;20556;-45
2021/05/24 10:08:12;;;;;;;1.10;1.00;;;22.40;40.00;;;;;;5001885;28;20441;-45
2021/05/24 10:10:40;;;;;;;1.43;1.33;;;22.70;39.70;;;;;;5006752;28;20591;-45
2021/05/24 10:13:07;;;;;;;1.00;1.00;;;22.60;39.20;;;;;;5012804;28;20229;-44
2021/05/24 10:15:36;;;;;;;2.17;1.10;;;22.60;39.50;;;;;;5002591;28;20433;-45
2021/05/24 10:18:03;;;;;;;1.10;1.10;;;22.80;39.50;;;;;;4993494;28;20442;-44
2021/05/24 10:20:30;;;;;;;2.00;1.40;;;22.60;38.90;;;;;;5008664;28;20441;-44
2021/05/24 10:22:56;;;;;;;1.40;1.10;;;22.50;39.30;;;;;;4998266;28;20434;-45
2021/05/24 10:25:22;;;;;;;1.50;1.40;;;22.40;39.60;;;;;;5016338;28;20481;-44
2021/05/24 10:27:49;;;;;;;1.53;1.30;;;22.50;40.80;;;;;;5006865;28;20227;-44
2021/05/24 10:30:15;;;;;;;1.70;1.27;;;22.50;41.00;;;;;;5008624;28;20441;-45
2021/05/24 10:33:00;;;;;;;1.40;1.30;;;22.50;41.00;;;;;;5013381;28;20932;-45
2021/05/24 10:35:31;;;;;;;1.20;1.10;;;22.50;40.10;;;;;;5011718;28;20437;-46
2021/05/24 10:37:58;;;;;;;1.03;0.97;;;22.60;40.50;;;;;;5001980;28;20542;-45
2021/05/24 10:40:23;;;;;;;1.13;1.03;;;22.60;40.50;;;;;;5009293;28;20440;-45
2021/05/24 10:42:49;;;;;;;1.30;1.17;;;22.20;40.50;;;;;;5008806;28;20902;-45
2021/05/24 10:45:25;;;;;;;1.93;1.03;;;22.40;40.30;;;;;;4998083;28;20277;-45
2021/05/24 10:47:58;;;;;;;1.33;1.13;;;22.40;40.80;;;;;;5004294;28;20730;-44
2021/05/24 10:50:25;;;;;;;1.10;1.10;;;22.40;41.60;;;;;;5008392;28;20808;-46
2021/05/24 10:53:16;;;;;;;1.20;1.10;;;22.50;40.70;;;;;;5004098;28;20440;-44
2021/05/24 10:55:49;;;;;;;1.40;1.30;;;22.40;40.90;;;;;;5002131;28;20453;-45
2021/05/24 10:58:17;;;;;;;1.20;0.97;;;22.40;40.00;;;;;;5012008;28;20445;-46
2021/05/24 11:00:59;;;;;;;1.43;1.30;;;22.50;38.80;;;;;;5005526;28;20482;-45
2021/05/24 11:03:25;;;;;;;1.00;1.00;;;22.60;39.30;;;;;;5011080;28;20543;-45
2021/05/24 11:06:07;;;;;;;1.40;1.30;;;22.80;39.30;;;;;;5010357;28;20432;-45
2021/05/24 11:08:38;;;;;;;2.43;1.00;;;23.00;39.60;;;;;;5010166;28;20495;-45
2021/05/24 11:11:27;;;;;;;1.10;1.00;;;22.90;39.70;;;;;;5007885;28;21003;-45
2021/05/24 11:13:57;;;;;;;1.97;1.43;;;22.90;38.40;;;;;;5017898;28;20553;-46
2021/05/24 11:16:23;;;;;;;1.40;1.30;;;23.00;38.70;;;;;;5013315;28;20487;-46
2021/05/24 11:18:49;;;;;;;1.73;1.37;;;23.20;38.60;;;;;;5007480;28;20436;-45
2021/05/24 11:21:19;;;;;;;1.53;1.43;;;23.20;38.60;;;;;;5009442;28;20440;-47
2021/05/24 11:26:23;;;;;;;1.97;1.60;;;23.40;38.30;;;;;;5011104;28;20433;-44
2021/05/24 11:28:49;;;;;;;1.43;1.33;;;23.30;37.50;;;;;;5010726;28;20607;-45
2021/05/24 11:31:22;;;;;;;1.70;1.60;;;23.20;37.60;;;;;;5011145;28;20437;-45
2021/05/24 11:33:47;;;;;;;2.40;1.53;;;23.30;37.90;;;;;;5011215;28;20929;-46
2021/05/24 11:36:20;;;;;;;1.30;1.20;;;23.40;38.20;;;;;;5011955;28;20584;-48
2021/05/24 11:39:18;;;;;;;1.77;1.60;;;23.50;37.90;;;;;;5008379;28;20230;-45
2021/05/24 11:41:51;;;;;;;1.20;1.10;;;23.50;37.90;;;;;;5011349;28;21353;-46
2021/05/24 11:44:16;;;;;;;2.20;1.20;;;23.60;38.50;;;;;;5016142;28;20794;-45
2021/05/24 11:46:46;;;;;;;1.30;1.20;;;23.40;38.40;;;;;;5010091;28;20528;-50
2021/05/24 11:49:13;;;;;;;1.10;1.10;;;23.40;38.10;;;;;;5009349;28;20661;-45
2021/05/24 11:51:40;;;;;;;2.37;1.20;;;23.40;38.70;;;;;;5020897;28;20821;-46
2021/05/24 11:54:07;;;;;;;0.90;0.90;;;23.20;38.30;;;;;;5009929;28;20421;-45
2021/05/24 11:56:36;;;;;;;1.40;1.30;;;23.20;38.30;;;;;;5007005;28;20429;-45
2021/05/24 11:59:03;;;;;;;1.50;1.40;;;23.50;38.70;;;;;;5008104;28;20441;-46
2021/05/24 12:01:28;;;;;;;1.60;1.30;;;23.70;38.00;;;;;;5001559;28;20541;-46
2021/05/24 12:03:55;;;;;;;1.37;1.27;;;23.70;38.20;;;;;;4991661;28;20516;-46
2021/05/24 12:06:20;;;;;;;1.40;1.30;;;23.60;37.80;;;;;;5003552;28;20626;-46
2021/05/24 12:08:47;;;;;;;1.40;1.30;;;23.60;37.00;;;;;;5009757;28;20433;-45
2021/05/24 12:11:15;;;;;;;2.80;1.10;;;23.60;36.80;;;;;;5009780;28;20261;-47
2021/05/24 12:14:00;;;;;;;3.70;0.97;;;23.80;38.20;;;;;;5009681;28;20437;-46
2021/05/24 12:16:27;;;;;;;1.00;1.00;;;23.60;36.80;;;;;;5004513;28;20432;-46
2021/05/24 12:18:55;;;;;;;2.93;1.30;;;23.40;37.30;;;;;;5009505;28;20495;-46
2021/05/24 12:21:40;;;;;;;2.07;1.70;;;23.70;37.50;;;;;;5006795;28;20428;-47
2021/05/24 12:24:09;;;;;;;1.33;1.23;;;23.80;37.20;;;;;;5009546;28;20515;-46
2021/05/24 12:26:36;;;;;;;2.17;1.57;;;23.90;37.50;;;;;;5006543;28;20511;-45
2021/05/24 12:29:03;;;;;;;1.60;1.27;;;24.10;36.90;;;;;;4999082;28;20872;-45
2021/05/24 12:31:30;;;;;;;2.13;0.97;;;24.30;36.10;;;;;;5009832;28;20532;-45
2021/05/24 12:33:57;;;;;;;1.33;1.23;;;24.20;36.40;;;;;;4994987;28;20484;-45
2021/05/24 12:36:31;;;;;;;0.90;0.90;;;24.10;34.50;;;;;;4995934;28;20461;-45
2021/05/24 12:38:59;;;;;;;1.10;1.00;;;24.30;34.60;;;;;;5010067;28;20839;-47
2021/05/24 12:41:30;;;;;;;1.50;1.20;;;24.40;35.60;;;;;;5009352;28;20441;-46
2021/05/24 12:43:58;;;;;;;0.80;0.80;;;24.50;35.20;;;;;;5009196;28;20528;-45
2021/05/24 12:46:24;;;;;;;1.43;1.30;;;24.70;34.50;;;;;;5016025;28;20432;-46
2021/05/24 12:48:54;;;;;;;1.73;0.80;;;24.70;33.40;;;;;;5001620;28;20448;-48
2021/05/24 12:51:25;;;;;;;1.20;1.10;;;24.50;32.90;;;;;;5001257;28;20194;-47